createdAt,value
2019-05-03T00:00:09.171Z,39.69
2019-05-03T00:01:09.169Z,39.79
2019-05-03T00:02:09.145Z,39.79
2019-05-03T00:03:09.125Z,39.79
2019-05-03T00:04:09.132Z,39.69
2019-05-03T00:05:09.187Z,39.69
2019-05-03T00:06:09.093Z,39.79
2019-05-03T00:07:11.688Z,39.79
2019-05-03T00:08:09.088Z,39.69
2019-05-03T00:09:09.066Z,40.09
2019-05-03T00:10:09.498Z,40.00
2019-05-03T00:11:09.043Z,40.00
2019-05-03T00:12:09.039Z,39.69
2019-05-03T00:13:09.015Z,39.89
2019-05-03T00:14:09.968Z,39.69
2019-05-03T00:15:09.028Z,39.69
2019-05-03T00:16:09.000Z,39.59
2019-05-03T00:17:08.976Z,39.69
2019-05-03T00:18:08.960Z,39.69
2019-05-03T00:19:09.484Z,39.69
2019-05-03T00:20:08.965Z,39.89
2019-05-03T00:21:08.952Z,39.79
2019-05-03T00:22:08.916Z,39.59
2019-05-03T00:23:08.909Z,39.59
2019-05-03T00:24:08.901Z,39.79
2019-05-03T00:25:09.017Z,39.69
2019-05-03T00:26:08.893Z,39.59
2019-05-03T00:27:08.865Z,39.69
2019-05-03T00:28:08.861Z,39.69
2019-05-03T00:29:08.843Z,39.50
2019-05-03T00:30:08.865Z,39.50
2019-05-03T00:31:09.465Z,39.39
2019-05-03T00:32:08.814Z,39.79
2019-05-03T00:33:08.806Z,39.59
2019-05-03T00:34:09.474Z,39.50
2019-05-03T00:35:08.784Z,40.00
2019-05-03T00:36:11.567Z,39.79
2019-05-03T00:37:08.768Z,39.79
2019-05-03T00:38:08.756Z,39.29
2019-05-03T00:39:08.740Z,39.79
2019-05-03T00:40:08.730Z,39.50
2019-05-03T00:41:09.478Z,39.50
2019-05-03T00:42:08.708Z,39.59
2019-05-03T00:43:08.693Z,39.50
2019-05-03T00:44:11.479Z,39.50
2019-05-03T00:45:08.976Z,39.69
2019-05-03T00:46:08.667Z,39.59
2019-05-03T00:47:08.646Z,39.50
2019-05-03T00:48:08.638Z,39.50
2019-05-03T00:49:09.468Z,39.50
2019-05-03T00:50:08.648Z,39.50
2019-05-03T00:51:08.631Z,39.50
2019-05-03T00:52:08.591Z,39.50
2019-05-03T00:53:08.579Z,39.39
2019-05-03T00:54:08.582Z,39.59
2019-05-03T00:55:16.329Z,39.39
2019-05-03T00:56:08.584Z,39.39
2019-05-03T00:57:08.535Z,39.50
2019-05-03T00:58:08.524Z,39.59
2019-05-03T00:59:08.521Z,39.59
2019-05-03T01:00:09.467Z,39.69
2019-05-03T01:01:08.529Z,39.81
2019-05-03T01:02:08.489Z,39.59
2019-05-03T01:03:08.469Z,39.59
2019-05-03T01:04:08.467Z,39.50
2019-05-03T01:05:08.448Z,39.69
2019-05-03T01:06:08.560Z,39.69
2019-05-03T01:07:08.428Z,39.69
2019-05-03T01:08:08.416Z,39.50
2019-05-03T01:09:08.406Z,39.69
2019-05-03T01:10:08.411Z,39.59
2019-05-03T01:11:08.412Z,39.59
2019-05-03T01:12:08.385Z,39.69
2019-05-03T01:13:09.001Z,39.69
2019-05-03T01:14:08.374Z,39.50
2019-05-03T01:15:08.339Z,39.61
2019-05-03T01:16:08.514Z,39.20
2019-05-03T01:17:08.331Z,39.29
2019-05-03T01:18:08.322Z,39.29
2019-05-03T01:19:08.299Z,39.09
2019-05-03T01:20:08.295Z,39.09
2019-05-03T01:21:08.369Z,39.50
2019-05-03T01:22:08.609Z,39.29
2019-05-03T01:23:08.255Z,39.50
2019-05-03T01:24:08.979Z,39.39
2019-05-03T01:25:08.233Z,39.20
2019-05-03T01:26:08.238Z,39.20
2019-05-03T01:27:08.232Z,39.09
2019-05-03T01:28:08.203Z,39.09
2019-05-03T01:29:08.217Z,39.09
2019-05-03T01:30:08.191Z,39.39
2019-05-03T01:31:08.166Z,39.20
2019-05-03T01:32:08.180Z,39.20
2019-05-03T01:33:08.145Z,39.20
2019-05-03T01:34:08.131Z,39.20
2019-05-03T01:35:08.121Z,39.20
2019-05-03T01:36:08.127Z,39.20
2019-05-03T01:37:08.143Z,39.20
2019-05-03T01:38:08.089Z,38.89
2019-05-03T01:39:08.985Z,39.31
2019-05-03T01:40:08.975Z,39.39
2019-05-03T01:41:08.064Z,39.22
2019-05-03T01:42:08.076Z,39.11
2019-05-03T01:43:08.033Z,39.29
2019-05-03T01:44:08.027Z,39.69
2019-05-03T01:45:08.969Z,39.39
2019-05-03T01:46:08.008Z,39.20
2019-05-03T01:47:08.036Z,39.22
2019-05-03T01:48:07.980Z,39.09
2019-05-03T01:49:07.973Z,39.39
2019-05-03T01:50:07.965Z,39.20
2019-05-03T01:51:07.954Z,39.11
2019-05-03T01:52:07.960Z,39.41
2019-05-03T01:53:08.477Z,39.29
2019-05-03T01:54:07.916Z,39.31
2019-05-03T01:55:07.909Z,39.29
2019-05-03T01:56:07.893Z,39.22
2019-05-03T01:57:07.997Z,39.91
2019-05-03T01:58:08.493Z,39.89
2019-05-03T01:59:07.865Z,39.39
2019-05-03T02:00:07.846Z,39.39
2019-05-03T02:01:07.850Z,39.41
2019-05-03T02:02:08.012Z,39.22
2019-05-03T02:03:07.815Z,39.29
2019-05-03T02:04:07.805Z,39.22
2019-05-03T02:05:07.794Z,39.22
2019-05-03T02:06:07.786Z,39.11
2019-05-03T02:07:07.792Z,39.22
2019-05-03T02:08:07.781Z,39.11
2019-05-03T02:09:07.758Z,39.20
2019-05-03T02:10:07.810Z,39.41
2019-05-03T02:11:07.729Z,39.22
2019-05-03T02:12:07.717Z,39.22
2019-05-03T02:13:08.012Z,39.51
2019-05-03T02:14:07.709Z,39.11
2019-05-03T02:15:07.707Z,39.50
2019-05-03T02:16:07.731Z,39.22
2019-05-03T02:17:07.670Z,39.41
2019-05-03T02:18:08.004Z,39.09
2019-05-03T02:19:08.476Z,39.41
2019-05-03T02:20:08.475Z,39.11
2019-05-03T02:21:07.634Z,39.39
2019-05-03T02:22:08.485Z,39.39
2019-05-03T02:23:07.632Z,39.39
2019-05-03T02:24:07.637Z,39.31
2019-05-03T02:25:07.582Z,39.31
2019-05-03T02:26:07.607Z,39.41
2019-05-03T02:27:07.562Z,39.41
2019-05-03T02:28:07.553Z,39.41
2019-05-03T02:29:07.534Z,39.39
2019-05-03T02:30:07.529Z,39.09
2019-05-03T02:31:08.477Z,39.11
2019-05-03T02:32:07.512Z,39.11
2019-05-03T02:33:07.527Z,39.11
2019-05-03T02:34:07.492Z,39.01
2019-05-03T02:35:07.979Z,39.11
2019-05-03T02:36:07.470Z,39.11
2019-05-03T02:37:07.471Z,39.20
2019-05-03T02:38:07.461Z,39.09
2019-05-03T02:39:07.442Z,39.11
2019-05-03T02:40:07.419Z,39.11
2019-05-03T02:41:07.407Z,39.22
2019-05-03T02:42:11.361Z,39.11
2019-05-03T02:43:07.420Z,39.61
2019-05-03T02:44:07.989Z,39.11
2019-05-03T02:45:07.392Z,39.01
2019-05-03T02:46:07.351Z,39.22
2019-05-03T02:47:07.334Z,39.50
2019-05-03T02:48:07.378Z,39.59
2019-05-03T02:49:07.353Z,39.61
2019-05-03T02:50:07.310Z,39.50
2019-05-03T02:51:07.302Z,39.11
2019-05-03T02:52:07.987Z,39.61
2019-05-03T02:53:07.282Z,39.61
2019-05-03T02:54:07.519Z,39.11
2019-05-03T02:55:07.278Z,39.41
2019-05-03T02:56:20.924Z,39.00
2019-05-03T02:57:07.230Z,39.61
2019-05-03T02:58:07.238Z,39.22
2019-05-03T02:59:07.519Z,39.61
2019-05-03T03:00:07.218Z,39.50
2019-05-03T03:01:07.202Z,39.50
2019-05-03T03:02:07.183Z,39.09
2019-05-03T03:03:07.168Z,39.50
2019-05-03T03:04:07.184Z,39.50
2019-05-03T03:05:07.143Z,39.51
2019-05-03T03:06:07.260Z,39.51
2019-05-03T03:07:07.131Z,39.22
2019-05-03T03:08:07.129Z,39.31
2019-05-03T03:09:07.500Z,39.50
2019-05-03T03:10:07.093Z,39.50
2019-05-03T03:11:07.086Z,39.39
2019-05-03T03:12:07.976Z,39.22
2019-05-03T03:13:07.079Z,38.81
2019-05-03T03:14:07.075Z,39.29
2019-05-03T03:15:07.042Z,39.29
2019-05-03T03:16:07.120Z,39.50
2019-05-03T03:17:07.980Z,39.51
2019-05-03T03:18:07.028Z,39.29
2019-05-03T03:19:07.200Z,38.81
2019-05-03T03:20:07.011Z,39.31
2019-05-03T03:21:06.975Z,39.29
2019-05-03T03:22:06.976Z,38.89
2019-05-03T03:23:06.956Z,38.89
2019-05-03T03:24:07.489Z,39.51
2019-05-03T03:25:06.958Z,39.29
2019-05-03T03:26:06.933Z,39.29
2019-05-03T03:27:06.915Z,38.81
2019-05-03T03:28:07.527Z,38.79
2019-05-03T03:29:06.894Z,38.79
2019-05-03T03:30:07.889Z,39.31
2019-05-03T03:31:08.339Z,38.71
2019-05-03T03:32:09.097Z,39.20
2019-05-03T03:33:08.638Z,38.79
2019-05-03T03:34:08.126Z,38.81
2019-05-03T03:35:11.749Z,39.22
2019-05-03T03:36:31.337Z,39.11
2019-05-03T03:37:10.391Z,38.79
2019-05-03T03:38:06.811Z,38.71
2019-05-03T03:39:06.789Z,38.79
2019-05-03T03:40:07.013Z,37.90
2019-05-03T03:41:07.492Z,38.71
2019-05-03T03:42:06.763Z,38.81
2019-05-03T03:43:06.741Z,38.71
2019-05-03T03:44:06.732Z,38.79
2019-05-03T03:45:06.748Z,38.51
2019-05-03T03:46:07.514Z,38.51
2019-05-03T03:47:06.716Z,38.51
2019-05-03T03:48:06.700Z,38.71
2019-05-03T03:49:07.173Z,39.20
2019-05-03T03:50:07.016Z,38.81
2019-05-03T03:51:06.658Z,38.51
2019-05-03T03:52:06.667Z,38.51
2019-05-03T03:53:07.493Z,38.81
2019-05-03T03:54:07.483Z,38.31
2019-05-03T03:55:06.696Z,38.31
2019-05-03T03:56:06.602Z,38.71
2019-05-03T03:57:08.314Z,38.79
2019-05-03T03:58:06.772Z,38.51
2019-05-03T03:59:06.583Z,38.81
2019-05-03T04:00:06.583Z,38.11
2019-05-03T04:01:06.558Z,38.42
2019-05-03T04:02:06.560Z,38.40
2019-05-03T04:03:07.485Z,38.42
2019-05-03T04:04:06.520Z,38.11
2019-05-03T04:05:06.508Z,38.11
2019-05-03T04:06:06.498Z,38.11
2019-05-03T04:07:07.017Z,38.81
2019-05-03T04:08:06.997Z,38.71
2019-05-03T04:09:06.984Z,38.42
2019-05-03T04:10:06.465Z,38.11
2019-05-03T04:11:06.583Z,39.61
2019-05-03T04:12:06.472Z,38.42
2019-05-03T04:13:06.418Z,38.42
2019-05-03T04:14:06.404Z,38.42
2019-05-03T04:15:06.422Z,38.42
2019-05-03T04:16:06.391Z,38.11
2019-05-03T04:17:06.383Z,38.31
2019-05-03T04:18:06.367Z,38.42
2019-05-03T04:19:06.349Z,38.42
2019-05-03T04:20:06.351Z,38.11
2019-05-03T04:21:06.330Z,38.11
2019-05-03T04:22:07.001Z,38.11
2019-05-03T04:23:06.998Z,38.42
2019-05-03T04:24:06.395Z,38.21
2019-05-03T04:25:06.530Z,38.21
2019-05-03T04:26:07.050Z,38.42
2019-05-03T04:27:18.531Z,38.11
2019-05-03T04:28:06.276Z,38.42
2019-05-03T04:29:06.268Z,38.31
2019-05-03T04:30:07.049Z,38.31
2019-05-03T04:31:06.511Z,38.42
2019-05-03T04:32:06.306Z,38.42
2019-05-03T04:33:06.419Z,38.01
2019-05-03T04:34:06.208Z,38.42
2019-05-03T04:35:06.194Z,38.42
2019-05-03T04:36:06.523Z,38.11
2019-05-03T04:37:06.164Z,38.11
2019-05-03T04:38:06.143Z,38.21
2019-05-03T04:39:06.133Z,38.11
2019-05-03T04:40:06.403Z,38.31
2019-05-03T04:41:06.342Z,38.42
2019-05-03T04:42:07.174Z,38.21
2019-05-03T04:43:06.514Z,38.31
2019-05-03T04:44:07.021Z,38.42
2019-05-03T04:45:06.158Z,38.11
2019-05-03T04:46:06.939Z,38.11
2019-05-03T04:47:07.099Z,38.31
2019-05-03T04:48:06.316Z,38.71
2019-05-03T04:49:06.046Z,38.21
2019-05-03T04:50:07.005Z,38.11
2019-05-03T04:51:06.545Z,38.31
2019-05-03T04:52:06.226Z,38.01
2019-05-03T04:53:06.489Z,38.61
2019-05-03T04:54:05.991Z,38.31
2019-05-03T04:55:06.744Z,38.42
2019-05-03T04:56:06.052Z,38.31
2019-05-03T04:57:06.590Z,38.21
2019-05-03T04:58:05.951Z,38.31
2019-05-03T04:59:05.927Z,38.71
2019-05-03T05:00:10.728Z,38.11
2019-05-03T05:01:06.451Z,38.61
2019-05-03T05:02:06.346Z,38.31
2019-05-03T05:03:06.238Z,38.61
2019-05-03T05:04:05.862Z,38.61
2019-05-03T05:05:06.184Z,38.71
2019-05-03T05:06:06.578Z,38.71
2019-05-03T05:07:06.342Z,38.71
2019-05-03T05:08:06.201Z,38.61
2019-05-03T05:09:05.818Z,38.42
2019-05-03T05:10:05.811Z,38.71
2019-05-03T05:11:09.876Z,38.61
2019-05-03T05:12:06.487Z,38.61
2019-05-03T05:13:05.835Z,38.61
2019-05-03T05:14:06.395Z,38.42
2019-05-03T05:15:05.757Z,38.81
2019-05-03T05:16:06.298Z,38.61
2019-05-03T05:17:06.495Z,38.61
2019-05-03T05:18:06.217Z,38.81
2019-05-03T05:19:05.936Z,38.71
2019-05-03T05:20:05.707Z,38.61
2019-05-03T05:21:05.693Z,38.61
2019-05-03T05:22:06.488Z,38.61
2019-05-03T05:23:05.658Z,38.61
2019-05-03T05:24:06.488Z,38.79
2019-05-03T05:25:06.486Z,38.81
2019-05-03T05:26:05.703Z,38.81
2019-05-03T05:27:05.621Z,38.81
2019-05-03T05:28:05.609Z,38.31
2019-05-03T05:29:06.511Z,38.31
2019-05-03T05:30:05.590Z,38.61
2019-05-03T05:31:06.019Z,38.81
2019-05-03T05:32:06.486Z,38.81
2019-05-03T05:33:05.563Z,38.61
2019-05-03T05:34:08.566Z,38.61
2019-05-03T05:35:05.545Z,38.71
2019-05-03T05:36:05.591Z,39.22
2019-05-03T05:37:05.540Z,39.01
2019-05-03T05:38:05.508Z,39.22
2019-05-03T05:39:05.493Z,39.72
2019-05-03T05:40:05.478Z,39.81
2019-05-03T05:41:05.476Z,39.81
2019-05-03T05:42:05.485Z,39.81
2019-05-03T05:43:05.994Z,39.81
2019-05-03T05:44:05.579Z,39.72
2019-05-03T05:45:05.436Z,39.51
2019-05-03T05:46:05.489Z,39.41
2019-05-03T05:47:05.417Z,39.20
2019-05-03T05:48:05.414Z,39.31
2019-05-03T05:49:05.401Z,38.81
2019-05-03T05:50:05.371Z,39.20
2019-05-03T05:51:05.362Z,38.49
2019-05-03T05:52:05.367Z,38.42
2019-05-03T05:53:05.348Z,38.59
2019-05-03T05:54:05.363Z,38.61
2019-05-03T05:55:05.316Z,38.49
2019-05-03T05:56:05.307Z,38.59
2019-05-03T05:57:08.277Z,38.49
2019-05-03T05:58:07.944Z,38.31
2019-05-03T05:59:05.991Z,38.49
2019-05-03T06:00:05.262Z,38.40
2019-05-03T06:01:05.563Z,38.61
2019-05-03T06:02:05.537Z,38.79
2019-05-03T06:03:05.289Z,37.90
2019-05-03T06:04:05.991Z,38.40
2019-05-03T06:05:05.993Z,38.59
2019-05-03T06:06:05.988Z,38.49
2019-05-03T06:07:05.207Z,38.31
2019-05-03T06:08:05.190Z,38.40
2019-05-03T06:09:05.997Z,38.59
2019-05-03T06:10:05.365Z,38.59
2019-05-03T06:11:05.150Z,38.61
2019-05-03T06:12:05.146Z,38.51
2019-05-03T06:13:06.025Z,38.40
2019-05-03T06:14:05.141Z,38.59
2019-05-03T06:15:05.104Z,38.49
2019-05-03T06:16:05.257Z,38.51
2019-05-03T06:17:05.472Z,38.40
2019-05-03T06:18:06.045Z,38.79
2019-05-03T06:19:05.064Z,38.79
2019-05-03T06:20:05.418Z,38.79
2019-05-03T06:21:05.045Z,38.21
2019-05-03T06:22:05.194Z,38.42
2019-05-03T06:23:05.345Z,38.31
2019-05-03T06:24:05.007Z,38.61
2019-05-03T06:25:06.545Z,38.49
2019-05-03T06:26:05.081Z,38.31
2019-05-03T06:27:05.127Z,38.29
2019-05-03T06:28:17.766Z,38.42
2019-05-03T06:29:04.962Z,38.40
2019-05-03T06:30:05.502Z,38.59
2019-05-03T06:31:05.492Z,38.49
2019-05-03T06:32:05.417Z,38.29
2019-05-03T06:33:05.343Z,38.49
2019-05-03T06:34:05.494Z,38.59
2019-05-03T06:35:05.056Z,38.29
2019-05-03T06:36:05.492Z,38.40
2019-05-03T06:37:04.877Z,38.49
2019-05-03T06:38:04.992Z,38.40
2019-05-03T06:39:08.218Z,38.49
2019-05-03T06:40:06.046Z,38.40
2019-05-03T06:41:04.869Z,38.09
2019-05-03T06:42:05.271Z,37.99
2019-05-03T06:43:09.837Z,38.79
2019-05-03T06:44:04.791Z,37.99
2019-05-03T06:45:10.486Z,37.99
2019-05-03T06:46:05.357Z,37.99
2019-05-03T06:47:08.788Z,38.07
2019-05-03T06:48:05.514Z,38.20
2019-05-03T06:49:06.562Z,38.87
2019-05-03T06:50:05.485Z,38.68
2019-05-03T06:51:09.175Z,38.57
2019-05-03T06:52:05.931Z,38.78
2019-05-03T06:53:12.470Z,38.57
2019-05-03T06:54:05.120Z,39.07
2019-05-03T06:55:06.326Z,39.67
2019-05-03T06:56:04.721Z,39.87
2019-05-03T06:57:05.651Z,40.08
2019-05-03T06:58:05.202Z,39.87
2019-05-03T06:59:05.264Z,39.89
2019-05-03T07:00:05.314Z,39.78
2019-05-03T07:01:04.741Z,39.58
2019-05-03T07:02:05.817Z,39.58
2019-05-03T07:03:05.063Z,40.17
2019-05-03T07:04:05.190Z,39.78
2019-05-03T07:05:05.138Z,39.78
2019-05-03T07:06:04.604Z,39.67
2019-05-03T07:07:05.234Z,39.07
2019-05-03T07:08:05.273Z,38.38
2019-05-03T07:09:05.495Z,37.88
2019-05-03T07:10:05.036Z,37.98
2019-05-03T07:11:05.224Z,38.28
2019-05-03T07:12:05.028Z,37.38
2019-05-03T07:13:05.052Z,37.88
2019-05-03T07:14:05.283Z,37.77
2019-05-03T07:15:05.222Z,38.18
2019-05-03T07:16:04.725Z,37.88
2019-05-03T07:17:05.528Z,38.40
2019-05-03T07:18:05.810Z,37.99
2019-05-03T07:19:04.995Z,37.40
2019-05-03T07:20:04.707Z,37.59
2019-05-03T07:21:04.843Z,37.59
2019-05-03T07:22:05.221Z,38.09
2019-05-03T07:23:04.447Z,38.49
2019-05-03T07:24:05.440Z,38.79
2019-05-03T07:25:04.690Z,39.29
2019-05-03T07:26:05.359Z,39.09
2019-05-03T07:27:05.458Z,38.40
2019-05-03T07:28:04.482Z,39.09
2019-05-03T07:29:05.011Z,39.39
2019-05-03T07:30:05.019Z,39.07
2019-05-03T07:31:04.815Z,39.18
2019-05-03T07:32:05.195Z,39.48
2019-05-03T07:33:04.875Z,39.20
2019-05-03T07:34:05.219Z,39.29
2019-05-03T07:35:04.580Z,39.18
2019-05-03T07:36:05.342Z,39.37
2019-05-03T07:37:05.884Z,39.18
2019-05-03T07:38:05.434Z,39.07
2019-05-03T07:39:05.410Z,39.37
2019-05-03T07:40:04.728Z,39.28
2019-05-03T07:41:05.321Z,39.37
2019-05-03T07:42:05.543Z,39.56
2019-05-03T07:43:04.583Z,39.07
2019-05-03T07:44:05.355Z,38.48
2019-05-03T07:45:05.080Z,39.48
2019-05-03T07:46:05.623Z,38.28
2019-05-03T07:47:04.811Z,38.06
2019-05-03T07:48:05.020Z,38.28
2019-05-03T07:49:05.027Z,38.07
2019-05-03T07:50:04.987Z,39.28
2019-05-03T07:51:05.541Z,38.07
2019-05-03T07:52:05.794Z,38.36
2019-05-03T07:53:04.644Z,39.26
2019-05-03T07:54:04.774Z,39.26
2019-05-03T07:55:05.020Z,38.46
2019-05-03T07:56:05.241Z,39.06
2019-05-03T07:57:05.130Z,39.15
2019-05-03T07:58:04.650Z,39.15
2019-05-03T07:59:06.297Z,39.15
2019-05-03T08:00:05.038Z,39.26
2019-05-03T08:01:09.375Z,39.95
2019-05-03T08:02:05.591Z,40.06
2019-05-03T08:03:05.004Z,39.26
2019-05-03T08:04:05.496Z,38.26
2019-05-03T08:05:05.239Z,38.06
2019-05-03T08:06:04.811Z,38.06
2019-05-03T08:07:04.666Z,37.46
2019-05-03T08:08:04.811Z,36.56
2019-05-03T08:09:04.908Z,36.86
2019-05-03T08:10:05.398Z,37.66
2019-05-03T08:11:05.261Z,36.98
2019-05-03T08:12:05.121Z,36.58
2019-05-03T08:13:04.681Z,37.06
2019-05-03T08:14:05.002Z,36.78
2019-05-03T08:15:05.373Z,36.88
2019-05-03T08:16:05.905Z,36.88
2019-05-03T08:17:05.085Z,36.46
2019-05-03T08:18:04.949Z,36.96
2019-05-03T08:19:04.850Z,36.88
2019-05-03T08:20:05.259Z,36.78
2019-05-03T08:21:05.588Z,37.16
2019-05-03T08:22:04.789Z,36.56
2019-05-03T08:23:05.322Z,36.86
2019-05-03T08:24:04.522Z,37.06
2019-05-03T08:25:05.416Z,36.76
2019-05-03T08:26:05.781Z,35.96
2019-05-03T08:27:05.020Z,36.16
2019-05-03T08:28:05.264Z,35.74
2019-05-03T08:29:15.235Z,35.66
2019-05-03T08:30:04.676Z,35.36
2019-05-03T08:31:04.810Z,35.66
2019-05-03T08:32:05.046Z,35.46
2019-05-03T08:33:05.540Z,35.56
2019-05-03T08:34:04.794Z,36.26
2019-05-03T08:35:04.819Z,33.66
2019-05-03T08:36:04.845Z,34.36
2019-05-03T08:37:05.133Z,33.68
2019-05-03T08:38:04.965Z,33.18
2019-05-03T08:39:05.493Z,33.88
2019-05-03T08:40:05.216Z,33.78
2019-05-03T08:41:05.310Z,33.66
2019-05-03T08:42:04.782Z,33.68
2019-05-03T08:43:05.139Z,33.86
2019-05-03T08:44:05.215Z,34.76
2019-05-03T08:45:04.559Z,34.06
2019-05-03T08:46:04.575Z,34.14
2019-05-03T08:47:05.186Z,33.86
2019-05-03T08:48:05.391Z,33.84
2019-05-03T08:49:05.192Z,33.65
2019-05-03T08:50:05.487Z,34.03
2019-05-03T08:51:04.521Z,34.55
2019-05-03T08:52:05.486Z,34.93
2019-05-03T08:53:05.129Z,34.93
2019-05-03T08:54:04.746Z,34.93
2019-05-03T08:55:05.258Z,34.53
2019-05-03T08:56:05.136Z,35.01
2019-05-03T08:57:03.368Z,35.21
2019-05-03T08:58:05.241Z,35.21
2019-05-03T08:59:04.706Z,34.91
2019-05-03T09:00:05.275Z,35.41
2019-05-03T09:01:05.316Z,35.21
2019-05-03T09:02:13.629Z,34.41
2019-05-03T09:03:05.119Z,35.81
2019-05-03T09:04:04.949Z,35.91
2019-05-03T09:05:05.151Z,34.69
2019-05-03T09:06:04.662Z,35.19
2019-05-03T09:07:05.474Z,34.99
2019-05-03T09:08:05.420Z,34.39
2019-05-03T09:09:04.663Z,35.29
2019-05-03T09:10:05.296Z,35.19
2019-05-03T09:11:05.059Z,34.69
2019-05-03T09:12:04.737Z,34.99
2019-05-03T09:13:05.527Z,34.59
2019-05-03T09:14:04.634Z,35.49
2019-05-03T09:15:04.765Z,35.29
2019-05-03T09:16:03.199Z,35.29
2019-05-03T09:17:04.973Z,35.29
2019-05-03T09:18:04.842Z,35.69
2019-05-03T09:19:05.397Z,34.99
2019-05-03T09:20:05.109Z,35.19
2019-05-03T09:21:05.004Z,35.19
2019-05-03T09:22:06.114Z,35.29
2019-05-03T09:23:05.319Z,35.39
2019-05-03T09:24:04.673Z,35.29
2019-05-03T09:25:04.937Z,34.89
2019-05-03T09:26:04.660Z,35.89
2019-05-03T09:27:05.112Z,35.49
2019-05-03T09:28:04.696Z,35.59
2019-05-03T09:29:05.526Z,35.69
2019-05-03T09:30:05.065Z,35.59
2019-05-03T09:31:04.681Z,35.39
2019-05-03T09:32:05.014Z,35.69
2019-05-03T09:33:06.045Z,36.09
2019-05-03T09:34:07.495Z,35.69
2019-05-03T09:35:02.979Z,35.69
2019-05-03T09:36:02.973Z,36.19
2019-05-03T09:37:04.771Z,36.09
2019-05-03T09:38:05.511Z,36.29
2019-05-03T09:39:05.011Z,36.39
2019-05-03T09:40:04.496Z,36.09
2019-05-03T09:41:05.106Z,35.99
2019-05-03T09:42:04.681Z,36.39
2019-05-03T09:43:04.690Z,36.19
2019-05-03T09:44:04.733Z,36.69
2019-05-03T09:45:04.834Z,36.09
2019-05-03T09:46:05.015Z,35.99
2019-05-03T09:47:02.832Z,35.99
2019-05-03T09:48:05.454Z,36.09
2019-05-03T09:49:12.586Z,36.59
2019-05-03T09:50:04.693Z,35.89
2019-05-03T09:51:05.195Z,36.19
2019-05-03T09:52:02.968Z,35.99
2019-05-03T09:53:02.749Z,35.47
2019-05-03T09:54:02.736Z,35.69
2019-05-03T09:55:02.730Z,35.49
2019-05-03T09:56:04.890Z,35.79
2019-05-03T09:57:02.765Z,35.79
2019-05-03T09:58:02.700Z,36.09
2019-05-03T09:59:02.683Z,35.97
2019-05-03T10:00:04.904Z,35.89
2019-05-03T10:01:05.300Z,35.88
2019-05-03T10:02:04.739Z,35.88
2019-05-03T10:03:05.635Z,35.88
2019-05-03T10:04:02.629Z,35.99
2019-05-03T10:05:02.646Z,35.89
2019-05-03T10:06:03.556Z,36.39
2019-05-03T10:07:02.609Z,36.19
2019-05-03T10:08:04.887Z,36.19
2019-05-03T10:09:05.374Z,36.18
2019-05-03T10:10:02.565Z,36.29
2019-05-03T10:11:02.548Z,36.19
2019-05-03T10:12:02.582Z,36.09
2019-05-03T10:13:13.102Z,36.29
2019-05-03T10:14:04.595Z,36.79
2019-05-03T10:15:02.558Z,36.39
2019-05-03T10:16:02.491Z,36.67
2019-05-03T10:17:04.920Z,36.49
2019-05-03T10:18:10.070Z,36.79
2019-05-03T10:19:02.485Z,37.08
2019-05-03T10:20:03.015Z,36.69
2019-05-03T10:21:03.149Z,36.79
2019-05-03T10:22:04.458Z,36.69
2019-05-03T10:23:05.098Z,36.79
2019-05-03T10:24:02.413Z,36.77
2019-05-03T10:25:02.419Z,37.08
2019-05-03T10:26:02.437Z,36.89
2019-05-03T10:27:02.390Z,36.79
2019-05-03T10:28:03.019Z,36.87
2019-05-03T10:29:02.383Z,36.99
2019-05-03T10:30:10.552Z,36.99
2019-05-03T10:31:06.931Z,37.08
2019-05-03T10:32:02.383Z,36.39
2019-05-03T10:33:02.319Z,37.08
2019-05-03T10:34:05.558Z,36.89
2019-05-03T10:35:05.506Z,36.59
2019-05-03T10:36:02.284Z,36.49
2019-05-03T10:37:02.317Z,36.37
2019-05-03T10:38:02.267Z,36.19
2019-05-03T10:39:02.246Z,37.57
2019-05-03T10:40:05.176Z,37.47
2019-05-03T10:41:02.247Z,37.57
2019-05-03T10:42:02.214Z,36.07
2019-05-03T10:43:02.236Z,37.67
2019-05-03T10:44:02.204Z,37.67
2019-05-03T10:45:04.509Z,37.37
2019-05-03T10:46:04.987Z,37.67
2019-05-03T10:47:02.191Z,37.37
2019-05-03T10:48:04.580Z,37.47
2019-05-03T10:49:03.012Z,38.07
2019-05-03T10:50:02.135Z,38.07
2019-05-03T10:51:02.112Z,37.57
2019-05-03T10:52:02.113Z,37.37
2019-05-03T10:53:02.098Z,37.77
2019-05-03T10:54:02.091Z,37.37
2019-05-03T10:55:02.069Z,37.47
2019-05-03T10:56:05.008Z,37.67
2019-05-03T10:57:02.059Z,38.07
2019-05-03T10:58:02.097Z,37.57
2019-05-03T10:59:03.015Z,37.57
2019-05-03T11:00:02.519Z,37.67
2019-05-03T11:01:02.007Z,37.67
2019-05-03T11:02:01.994Z,37.97
2019-05-03T11:03:02.008Z,37.57
2019-05-03T11:04:02.511Z,37.67
2019-05-03T11:05:02.513Z,37.97
2019-05-03T11:06:01.956Z,38.37
2019-05-03T11:07:01.939Z,37.67
2019-05-03T11:08:02.022Z,37.97
2019-05-03T11:09:02.571Z,37.67
2019-05-03T11:10:02.523Z,38.07
2019-05-03T11:11:02.516Z,37.67
2019-05-03T11:12:02.517Z,38.07
2019-05-03T11:13:01.890Z,38.37
2019-05-03T11:14:01.861Z,38.27
2019-05-03T11:15:01.884Z,38.27
2019-05-03T11:16:02.515Z,38.17
2019-05-03T11:17:02.552Z,37.97
2019-05-03T11:18:02.039Z,38.67
2019-05-03T11:19:01.805Z,38.17
2019-05-03T11:20:02.510Z,38.76
2019-05-03T11:21:01.780Z,37.87
2019-05-03T11:22:01.775Z,38.37
2019-05-03T11:23:01.773Z,37.95
2019-05-03T11:24:01.746Z,37.85
2019-05-03T11:25:02.511Z,37.97
2019-05-03T11:26:01.736Z,38.37
2019-05-03T11:27:01.715Z,38.35
2019-05-03T11:28:01.752Z,38.15
2019-05-03T11:29:02.051Z,37.75
2019-05-03T11:30:02.531Z,37.95
2019-05-03T11:31:02.371Z,37.85
2019-05-03T11:32:01.682Z,38.35
2019-05-03T11:33:02.510Z,38.15
2019-05-03T11:34:01.646Z,36.16
2019-05-03T11:35:01.623Z,36.25
2019-05-03T11:36:01.615Z,36.05
2019-05-03T11:37:01.603Z,36.76
2019-05-03T11:38:01.594Z,36.46
2019-05-03T11:39:02.112Z,34.96
2019-05-03T11:40:01.590Z,35.08
2019-05-03T11:41:01.566Z,34.88
2019-05-03T11:42:01.553Z,33.38
2019-05-03T11:43:01.545Z,33.48
2019-05-03T11:44:02.032Z,32.98
2019-05-03T11:45:01.514Z,32.98
2019-05-03T11:46:02.007Z,32.59
2019-05-03T11:47:01.508Z,32.39
2019-05-03T11:48:02.091Z,33.18
2019-05-03T11:49:01.478Z,32.80
2019-05-03T11:50:01.463Z,32.90
2019-05-03T11:51:02.015Z,32.40
2019-05-03T11:52:02.297Z,32.60
2019-05-03T11:53:01.428Z,32.30
2019-05-03T11:54:01.477Z,33.00
2019-05-03T11:55:01.410Z,33.10
2019-05-03T11:56:01.400Z,33.20
2019-05-03T11:57:01.421Z,32.90
2019-05-03T11:58:01.372Z,33.90
2019-05-03T11:59:01.376Z,33.30
2019-05-03T12:00:01.370Z,32.70
2019-05-03T12:01:14.912Z,32.90
2019-05-03T12:02:01.436Z,32.40
2019-05-03T12:03:02.025Z,31.92
2019-05-03T12:04:01.310Z,32.22
2019-05-03T12:05:01.363Z,32.00
2019-05-03T12:06:01.288Z,32.92
2019-05-03T12:07:01.347Z,32.32
2019-05-03T12:08:01.287Z,32.30
2019-05-03T12:09:01.293Z,32.42
2019-05-03T12:10:01.331Z,32.42
2019-05-03T12:11:01.730Z,31.82
2019-05-03T12:12:01.237Z,32.00
2019-05-03T12:13:02.044Z,32.32
2019-05-03T12:14:04.481Z,32.52
2019-05-03T12:15:01.214Z,31.72
2019-05-03T12:16:01.470Z,32.32
2019-05-03T12:17:17.294Z,32.52
2019-05-03T12:18:01.756Z,32.52
2019-05-03T12:19:14.079Z,30.82
2019-05-03T12:20:02.765Z,30.72
2019-05-03T12:21:02.456Z,31.72
2019-05-03T12:22:01.939Z,32.42
2019-05-03T12:23:01.773Z,32.12
2019-05-03T12:24:01.765Z,32.22
2019-05-03T12:25:01.697Z,32.02
2019-05-03T12:26:01.763Z,32.02
2019-05-03T12:27:02.033Z,31.62
2019-05-03T12:28:01.061Z,31.42
2019-05-03T12:29:01.074Z,31.52
2019-05-03T12:30:01.563Z,32.02
2019-05-03T12:31:01.021Z,31.62
2019-05-03T12:32:01.513Z,31.82
2019-05-03T12:33:01.043Z,30.82
2019-05-03T12:34:01.020Z,31.12
2019-05-03T12:35:00.992Z,30.92
2019-05-03T12:36:01.014Z,30.62
2019-05-03T12:37:00.988Z,30.32
2019-05-03T12:38:00.960Z,30.72
2019-05-03T12:39:00.961Z,30.62
2019-05-03T12:40:00.938Z,31.02
2019-05-03T12:41:00.920Z,30.02
2019-05-03T12:42:00.909Z,29.82
2019-05-03T12:43:00.915Z,30.62
2019-05-03T12:44:00.897Z,29.52
2019-05-03T12:45:00.905Z,29.72
2019-05-03T12:46:01.537Z,28.12
2019-05-03T12:47:02.601Z,28.12
2019-05-03T12:48:00.844Z,26.75
2019-05-03T12:49:00.874Z,26.94
2019-05-03T12:50:00.833Z,26.46
2019-05-03T12:51:01.159Z,26.06
2019-05-03T12:52:00.800Z,25.57